Time;durP1;ratioP1;P1;durP2;ratioP2;P2;SDS_P1;SDS_P2;PMS_P1;PMS_P2;Temp;Humidity;BMP_temperature;BMP_pressure;BME280_temperature;BME280_humidity;BME280_pressure;Samples;Min_cycle;Max_cycle;Signal;HPM_P1;HPM_P2
2022/04/03 00:00:33;;;;;;;1.77;1.10;;;1.80;99.90;;;;;;5001688;28;20057;-79
2022/04/03 00:03:00;;;;;;;0.90;0.90;;;1.80;99.90;;;;;;5002584;28;20104;-79
2022/04/03 00:05:26;;;;;;;0.80;0.60;;;1.80;99.90;;;;;;5002473;28;20042;-79
2022/04/03 00:07:53;;;;;;;0.43;0.43;;;1.80;99.90;;;;;;5002819;28;20141;-79
2022/04/03 00:10:19;;;;;;;0.43;0.43;;;1.80;99.90;;;;;;5002424;28;20046;-79
2022/04/03 00:12:46;;;;;;;0.73;0.73;;;1.80;99.90;;;;;;5001838;28;20050;-79
2022/04/03 00:15:14;;;;;;;0.47;0.47;;;1.80;99.90;;;;;;5009628;28;20099;-79
2022/04/03 00:17:40;;;;;;;2.80;0.93;;;1.80;99.90;;;;;;5022294;28;20045;-78
2022/04/03 00:20:06;;;;;;;0.63;0.37;;;1.80;99.90;;;;;;5022772;28;20042;-79
2022/04/03 00:22:31;;;;;;;0.20;0.20;;;1.80;99.90;;;;;;5021937;28;20400;-79
2022/04/03 00:24:57;;;;;;;0.10;0.10;;;1.80;99.90;;;;;;5008065;28;20499;-78
2022/04/03 00:27:23;;;;;;;1.30;1.17;;;1.80;99.90;;;;;;5002430;28;20548;-79
2022/04/03 00:29:48;;;;;;;0.83;0.60;;;1.80;99.90;;;;;;5000270;28;20536;-79
2022/04/03 00:32:14;;;;;;;0.40;0.40;;;1.80;99.90;;;;;;5010995;28;20053;-81
2022/04/03 00:34:39;;;;;;;0.20;0.20;;;1.80;99.90;;;;;;5021993;28;20092;-80
2022/04/03 00:37:05;;;;;;;0.40;0.40;;;1.80;99.90;;;;;;5022275;28;20553;-80
2022/04/03 00:39:30;;;;;;;3.63;0.77;;;1.80;99.90;;;;;;5021907;28;20617;-79
2022/04/03 00:41:56;;;;;;;1.20;0.80;;;1.90;99.90;;;;;;5022039;28;20538;-79
2022/04/03 00:44:23;;;;;;;1.23;1.23;;;1.90;99.90;;;;;;5020804;28;20411;-80
2022/04/03 00:46:49;;;;;;;0.77;0.77;;;1.90;99.90;;;;;;4997875;28;20046;-80
2022/04/03 00:49:14;;;;;;;1.47;1.33;;;1.90;99.90;;;;;;4980803;28;20045;-80
2022/04/03 00:51:40;;;;;;;0.47;0.47;;;1.90;99.90;;;;;;4982565;28;20043;-80
2022/04/03 00:54:07;;;;;;;1.37;1.10;;;2.00;99.90;;;;;;4998040;28;20054;-80
2022/04/03 00:56:33;;;;;;;1.37;1.27;;;2.00;99.90;;;;;;4982035;28;20762;-79
2022/04/03 00:58:59;;;;;;;1.70;1.60;;;2.00;99.90;;;;;;4981770;28;20081;-80
2022/04/03 01:01:25;;;;;;;0.70;0.70;;;2.00;99.90;;;;;;4984493;28;20066;-80
2022/04/03 01:03:51;;;;;;;0.60;0.60;;;2.10;99.90;;;;;;5001724;28;20042;-79
2022/04/03 01:06:16;;;;;;;2.00;0.67;;;2.10;99.90;;;;;;5000630;28;20436;-80
2022/04/03 01:08:42;;;;;;;0.53;0.53;;;2.10;99.90;;;;;;5003015;28;20089;-79
2022/04/03 01:11:12;;;;;;;0.60;0.60;;;2.10;99.90;;;;;;5022336;28;20041;-79
2022/04/03 01:13:46;;;;;;;4.33;0.57;;;2.00;99.90;;;;;;5019670;28;20053;-79
2022/04/03 01:16:11;;;;;;;0.20;0.20;;;2.00;99.90;;;;;;5021316;28;20060;-80
2022/04/03 01:18:37;;;;;;;0.77;0.73;;;2.10;99.90;;;;;;5020517;28;20049;-79
2022/04/03 01:21:03;;;;;;;1.20;1.07;;;2.10;99.90;;;;;;5021468;28;20819;-80
2022/04/03 01:23:28;;;;;;;0.63;0.63;;;2.10;99.90;;;;;;5017658;28;20046;-80
2022/04/03 01:25:54;;;;;;;0.97;0.97;;;2.10;99.90;;;;;;5002162;28;20480;-80
2022/04/03 01:28:20;;;;;;;8.63;0.70;;;2.20;99.90;;;;;;5000784;28;20042;-80
2022/04/03 01:30:45;;;;;;;0.50;0.50;;;2.20;99.90;;;;;;5002110;28;20435;-80
2022/04/03 01:33:11;;;;;;;3.97;0.83;;;2.30;99.90;;;;;;5001631;28;20334;-80
2022/04/03 01:35:36;;;;;;;25.97;1.20;;;2.30;99.90;;;;;;5001883;28;20073;-80
2022/04/03 01:38:02;;;;;;;0.30;0.30;;;2.30;99.90;;;;;;5001689;28;20455;-79
2022/04/03 01:40:28;;;;;;;1.10;0.90;;;2.30;99.90;;;;;;5001461;28;20575;-80
2022/04/03 01:42:53;;;;;;;2.10;0.60;;;2.30;99.90;;;;;;4999332;28;20037;-79
2022/04/03 01:45:20;;;;;;;1.40;0.93;;;2.30;99.90;;;;;;5001613;28;20492;-79
2022/04/03 01:47:45;;;;;;;1.43;1.03;;;2.40;99.90;;;;;;5001679;28;20129;-80
2022/04/03 01:50:11;;;;;;;2.17;1.07;;;2.40;99.90;;;;;;5000259;28;20592;-80
2022/04/03 01:52:36;;;;;;;1.63;1.30;;;2.40;99.90;;;;;;5001904;28;20137;-80
2022/04/03 01:55:02;;;;;;;0.70;0.70;;;2.40;99.90;;;;;;5001553;28;20833;-79
2022/04/03 01:57:28;;;;;;;0.50;0.43;;;2.40;99.90;;;;;;5000411;28;20085;-79
2022/04/03 01:59:53;;;;;;;0.80;0.77;;;2.40;99.90;;;;;;5005112;28;20042;-80
2022/04/03 02:02:19;;;;;;;0.70;0.70;;;2.40;99.90;;;;;;5003190;28;20048;-80
2022/04/03 02:04:45;;;;;;;4.47;0.60;;;2.50;99.90;;;;;;5003553;28;20524;-80
2022/04/03 02:07:11;;;;;;;0.20;0.20;;;2.50;99.90;;;;;;5004494;28;20370;-80
2022/04/03 02:09:37;;;;;;;0.73;0.73;;;2.50;99.90;;;;;;5003809;28;20049;-80
2022/04/03 02:12:04;;;;;;;0.83;0.80;;;2.50;99.90;;;;;;5005099;28;20053;-80
2022/04/03 02:14:29;;;;;;;0.60;0.60;;;2.50;99.90;;;;;;5012196;28;20080;-80
2022/04/03 02:16:56;;;;;;;0.90;0.90;;;2.50;99.90;;;;;;5024511;28;20084;-79
2022/04/03 02:19:22;;;;;;;1.70;1.20;;;2.40;99.90;;;;;;5024463;28;20092;-79
2022/04/03 02:21:48;;;;;;;1.07;0.97;;;2.40;99.90;;;;;;5024083;28;20076;-79
2022/04/03 02:24:14;;;;;;;0.87;0.87;;;2.40;99.90;;;;;;5022899;28;20041;-80
2022/04/03 02:26:40;;;;;;;0.47;0.47;;;2.40;99.90;;;;;;5024516;28;20585;-80
2022/04/03 02:29:06;;;;;;;0.63;0.63;;;2.30;99.90;;;;;;5023624;28;20041;-80
2022/04/03 02:31:31;;;;;;;0.50;0.50;;;2.30;99.90;;;;;;5022618;28;20076;-79
2022/04/03 02:33:57;;;;;;;1.27;1.23;;;2.30;99.90;;;;;;5024118;28;20698;-79
2022/04/03 02:36:23;;;;;;;0.90;0.90;;;2.20;99.90;;;;;;5023565;28;20087;-79
2022/04/03 02:38:49;;;;;;;1.10;1.03;;;2.20;99.90;;;;;;5024264;28;20045;-80
2022/04/03 02:41:14;;;;;;;0.67;0.67;;;2.10;99.90;;;;;;5023701;28;20535;-80
2022/04/03 02:43:40;;;;;;;0.67;0.67;;;2.10;99.90;;;;;;5020664;28;20057;-80
2022/04/03 02:46:06;;;;;;;0.20;0.20;;;2.10;99.90;;;;;;5004758;28;20053;-79
2022/04/03 02:48:33;;;;;;;0.30;0.30;;;2.00;99.90;;;;;;5002876;28;20180;-79
2022/04/03 02:50:59;;;;;;;0.47;0.40;;;2.00;99.90;;;;;;5004209;28;20057;-79
2022/04/03 02:53:25;;;;;;;0.47;0.43;;;2.00;99.90;;;;;;5004025;28;20089;-80
2022/04/03 02:55:51;;;;;;;0.60;0.60;;;1.90;99.90;;;;;;5003786;28;20500;-79
2022/04/03 02:58:17;;;;;;;2.20;0.63;;;1.90;99.90;;;;;;5002961;28;20041;-80
2022/04/03 03:00:42;;;;;;;1.03;0.70;;;1.90;99.90;;;;;;5008555;28;20451;-80
2022/04/03 03:03:09;;;;;;;0.40;0.40;;;1.80;99.90;;;;;;5023900;28;20124;-80
2022/04/03 03:05:34;;;;;;;0.67;0.67;;;1.80;99.90;;;;;;5022422;28;20116;-80
2022/04/03 03:08:01;;;;;;;2.77;1.17;;;1.80;99.90;;;;;;5021767;28;20541;-80
2022/04/03 03:10:27;;;;;;;0.40;0.17;;;1.70;99.90;;;;;;5023539;28;20053;-80
2022/04/03 03:12:53;;;;;;;1.60;0.77;;;1.70;99.90;;;;;;5022709;28;20037;-79
2022/04/03 03:15:19;;;;;;;0.30;0.30;;;1.70;99.90;;;;;;5017122;28;20038;-80
2022/04/03 03:17:46;;;;;;;0.63;0.50;;;1.60;99.90;;;;;;5002337;28;20111;-80
2022/04/03 03:20:12;;;;;;;2.33;1.27;;;1.60;99.90;;;;;;5003268;28;20050;-80
2022/04/03 03:22:38;;;;;;;0.70;0.70;;;1.60;99.90;;;;;;5004087;28;20107;-80
2022/04/03 03:25:05;;;;;;;0.67;0.67;;;1.60;99.90;;;;;;5002976;28;20443;-79
2022/04/03 03:27:31;;;;;;;2.00;0.83;;;1.60;99.90;;;;;;5001188;28;20057;-80
2022/04/03 03:29:57;;;;;;;0.97;0.83;;;1.60;99.90;;;;;;5003420;28;20473;-80
2022/04/03 03:32:24;;;;;;;0.67;0.67;;;1.70;99.90;;;;;;5001755;28;20045;-79
2022/04/03 03:34:54;;;;;;;0.60;0.53;;;1.60;99.90;;;;;;5003471;28;20042;-80
2022/04/03 03:37:20;;;;;;;0.33;0.33;;;1.60;99.90;;;;;;5003116;28;20064;-80
2022/04/03 03:39:45;;;;;;;27.40;1.03;;;1.60;99.90;;;;;;5003587;28;20041;-80
2022/04/03 03:42:11;;;;;;;0.53;0.27;;;1.60;99.90;;;;;;5020503;28;20045;-80
2022/04/03 03:44:37;;;;;;;2.20;1.80;;;1.50;99.90;;;;;;5021413;28;20714;-80
2022/04/03 03:47:03;;;;;;;0.30;0.27;;;1.60;99.90;;;;;;5001505;28;20597;-79
2022/04/03 03:49:28;;;;;;;0.57;0.57;;;1.50;99.90;;;;;;5002933;28;20350;-80
2022/04/03 03:51:54;;;;;;;0.57;0.47;;;1.50;99.90;;;;;;4985367;28;20041;-80
2022/04/03 03:54:19;;;;;;;1.17;0.90;;;1.50;99.90;;;;;;5002691;28;20095;-80
2022/04/03 03:56:45;;;;;;;0.73;0.73;;;1.50;99.90;;;;;;5002928;28;20046;-80
2022/04/03 03:59:10;;;;;;;1.30;1.00;;;1.40;99.90;;;;;;5000980;28;20400;-80
2022/04/03 04:01:36;;;;;;;0.20;0.20;;;1.40;99.90;;;;;;5003046;28;20083;-80
2022/04/03 04:04:02;;;;;;;0.83;0.83;;;1.40;99.90;;;;;;5001236;28;20053;-80
2022/04/03 04:06:28;;;;;;;1.60;0.93;;;1.40;99.90;;;;;;5002032;28;20045;-80
2022/04/03 04:08:54;;;;;;;0.30;0.30;;;1.40;99.90;;;;;;5002618;28;20063;-80
2022/04/03 04:11:20;;;;;;;0.67;0.67;;;1.30;99.90;;;;;;5002316;28;20042;-80
2022/04/03 04:13:45;;;;;;;2.60;0.93;;;1.30;99.90;;;;;;5001472;28;20053;-80
2022/04/03 04:16:11;;;;;;;0.40;0.40;;;1.30;99.90;;;;;;5002352;28;20042;-80
2022/04/03 04:18:37;;;;;;;0.83;0.23;;;1.30;99.90;;;;;;5001748;28;20049;-80
2022/04/03 04:21:03;;;;;;;0.87;0.40;;;1.30;99.90;;;;;;5002994;28;20161;-80
2022/04/03 04:23:29;;;;;;;0.27;0.23;;;1.30;99.90;;;;;;5002316;28;20045;-80
2022/04/03 04:25:55;;;;;;;0.30;0.30;;;1.20;99.90;;;;;;5002645;28;20048;-80
2022/04/03 04:28:21;;;;;;;0.70;0.67;;;1.20;99.90;;;;;;4999997;28;20089;-80
2022/04/03 04:30:46;;;;;;;0.70;0.70;;;1.20;99.90;;;;;;5002391;28;20472;-81
2022/04/03 04:33:12;;;;;;;0.47;0.47;;;1.10;99.90;;;;;;5012242;28;20053;-80
2022/04/03 04:35:37;;;;;;;0.40;0.40;;;1.10;99.90;;;;;;5022514;28;20128;-80
2022/04/03 04:38:03;;;;;;;0.43;0.43;;;1.10;99.90;;;;;;5021925;28;20088;-80
2022/04/03 04:40:29;;;;;;;0.70;0.70;;;1.00;99.90;;;;;;5008182;28;20042;-81
2022/04/03 04:42:55;;;;;;;0.97;0.97;;;1.00;99.90;;;;;;5000207;28;20034;-80
2022/04/03 04:45:22;;;;;;;1.03;0.70;;;1.00;99.90;;;;;;5002127;28;20049;-80
2022/04/03 04:47:48;;;;;;;1.33;0.77;;;1.00;99.90;;;;;;5002124;28;20046;-80
2022/04/03 04:50:15;;;;;;;0.97;0.43;;;1.00;99.90;;;;;;5001085;28;20064;-80
2022/04/03 04:52:41;;;;;;;1.40;0.50;;;1.00;99.90;;;;;;5002303;28;20045;-80
2022/04/03 04:55:08;;;;;;;0.27;0.27;;;1.00;99.90;;;;;;5001175;28;20500;-79
2022/04/03 04:57:35;;;;;;;0.40;0.40;;;1.00;99.90;;;;;;5001854;28;20369;-80
2022/04/03 05:00:00;;;;;;;0.40;0.33;;;1.00;99.90;;;;;;5002146;28;20088;-79
2022/04/03 05:02:26;;;;;;;0.30;0.30;;;1.00;99.90;;;;;;5001967;28;20037;-80
2022/04/03 05:04:52;;;;;;;0.23;0.23;;;1.00;99.90;;;;;;5002224;28;20049;-80
2022/04/03 05:07:18;;;;;;;0.37;0.33;;;1.00;99.90;;;;;;5000145;28;20058;-81
2022/04/03 05:09:46;;;;;;;0.30;0.30;;;1.10;99.90;;;;;;5001968;28;20129;-80
2022/04/03 05:12:12;;;;;;;0.80;0.77;;;1.20;99.90;;;;;;4999385;28;20096;-80
2022/04/03 05:14:38;;;;;;;0.90;0.60;;;1.20;99.90;;;;;;5002233;28;20822;-80
2022/04/03 05:17:05;;;;;;;0.40;0.30;;;1.30;99.90;;;;;;5002305;28;20359;-80
2022/04/03 05:19:32;;;;;;;0.90;0.87;;;1.30;99.90;;;;;;5001660;28;20746;-80
2022/04/03 05:21:57;;;;;;;1.40;0.73;;;1.40;99.90;;;;;;5001981;28;20053;-79
2022/04/03 05:24:23;;;;;;;0.63;0.60;;;1.50;99.90;;;;;;5001728;28;20496;-80
2022/04/03 05:26:48;;;;;;;1.07;0.40;;;1.60;99.90;;;;;;4999833;28;20578;-80
2022/04/03 05:29:14;;;;;;;1.07;0.90;;;1.60;99.90;;;;;;5001719;28;20038;-79
2022/04/03 05:31:40;;;;;;;0.73;0.50;;;1.60;99.90;;;;;;5003507;28;20484;-80
2022/04/03 05:34:06;;;;;;;1.20;1.10;;;1.60;99.90;;;;;;5005786;28;20046;-80
2022/04/03 05:36:31;;;;;;;0.40;0.23;;;1.70;99.90;;;;;;5005282;28;20400;-80
2022/04/03 05:38:57;;;;;;;2.37;0.80;;;1.70;99.90;;;;;;5005214;28;20217;-80
2022/04/03 05:41:22;;;;;;;0.60;0.60;;;1.70;99.90;;;;;;5005160;28;20117;-80
2022/04/03 05:43:48;;;;;;;1.33;0.67;;;1.70;99.90;;;;;;5003155;28;20042;-80
2022/04/03 05:46:14;;;;;;;0.10;0.10;;;1.70;99.90;;;;;;5005091;28;20156;-80
2022/04/03 05:48:39;;;;;;;1.80;0.83;;;1.70;99.90;;;;;;5005485;28;20690;-80
2022/04/03 05:51:05;;;;;;;0.67;0.60;;;1.80;99.90;;;;;;5004534;28;20049;-80
2022/04/03 05:53:30;;;;;;;1.80;0.97;;;1.80;99.90;;;;;;5004832;28;20042;-79
2022/04/03 05:55:56;;;;;;;1.80;1.30;;;1.70;99.90;;;;;;5005147;28;20034;-80
2022/04/03 05:58:21;;;;;;;0.20;0.20;;;1.80;99.90;;;;;;5003946;28;20100;-79
2022/04/03 06:00:47;;;;;;;1.07;0.50;;;1.90;99.90;;;;;;5005030;28;20083;-80
2022/04/03 06:03:13;;;;;;;0.67;0.60;;;1.90;99.90;;;;;;5004759;28;20455;-80
2022/04/03 06:05:39;;;;;;;0.50;0.10;;;1.90;99.90;;;;;;5004947;28;20135;-80
2022/04/03 06:08:05;;;;;;;0.00;0.00;;;1.90;99.90;;;;;;5003990;28;20180;-79
2022/04/03 06:10:34;;;;;;;2.43;0.30;;;2.00;99.90;;;;;;5004421;28;20136;-80
2022/04/03 06:13:05;;;;;;;4.53;0.80;;;2.10;99.90;;;;;;5003584;28;20121;-79
2022/04/03 06:15:42;;;;;;;0.40;0.10;;;2.10;99.90;;;;;;5004725;28;20042;-80
2022/04/03 06:18:15;;;;;;;0.30;0.30;;;2.10;99.90;;;;;;5005097;28;20280;-79
2022/04/03 06:20:41;;;;;;;0.10;0.10;;;2.20;99.90;;;;;;5011604;28;20048;-80
2022/04/03 06:23:19;;;;;;;0.23;0.23;;;2.20;99.90;;;;;;5024446;28;20038;-80
2022/04/03 06:25:46;;;;;;;0.30;0.30;;;2.30;99.90;;;;;;5014494;28;20045;-79
2022/04/03 06:28:12;;;;;;;0.13;0.13;;;2.40;99.90;;;;;;5003588;28;20523;-80
2022/04/03 06:30:38;;;;;;;0.33;0.33;;;2.50;99.90;;;;;;5004986;28;20397;-79
2022/04/03 06:33:04;;;;;;;0.50;0.43;;;2.60;99.90;;;;;;5004762;28;20046;-79
2022/04/03 06:35:30;;;;;;;0.00;0.00;;;2.60;99.90;;;;;;5007668;28;20037;-80
2022/04/03 06:37:56;;;;;;;0.40;0.40;;;2.70;99.90;;;;;;5024043;28;20045;-79
2022/04/03 06:40:23;;;;;;;0.00;0.00;;;2.80;99.90;;;;;;5022218;28;20158;-80
2022/04/03 06:42:50;;;;;;;0.10;0.10;;;2.80;99.90;;;;;;5008224;28;20046;-80
2022/04/03 06:45:15;;;;;;;1.60;0.57;;;2.90;99.90;;;;;;5003844;28;20515;-80
2022/04/03 06:47:41;;;;;;;0.70;0.33;;;3.00;99.90;;;;;;5004369;28;20121;-80
2022/04/03 06:50:08;;;;;;;0.40;0.40;;;3.10;99.90;;;;;;5004399;28;20133;-80
2022/04/03 06:52:34;;;;;;;0.30;0.30;;;3.20;99.90;;;;;;5004351;28;20058;-80
2022/04/03 06:55:00;;;;;;;0.30;0.30;;;3.30;99.90;;;;;;5003742;28;20038;-80
2022/04/03 06:57:26;;;;;;;0.10;0.10;;;3.30;99.90;;;;;;5003119;28;20061;-80
2022/04/03 06:59:52;;;;;;;7.73;0.40;;;3.30;99.90;;;;;;5002768;28;20468;-80
2022/04/03 07:02:17;;;;;;;0.63;0.63;;;3.40;99.90;;;;;;5004353;28;20049;-80
2022/04/03 07:04:43;;;;;;;1.03;0.43;;;3.40;99.90;;;;;;5004025;28;20056;-80
2022/04/03 07:07:08;;;;;;;0.23;0.23;;;3.50;99.90;;;;;;5019930;28;20132;-80
2022/04/03 07:09:41;;;;;;;2.10;0.20;;;3.60;99.90;;;;;;5024063;28;20046;-80
2022/04/03 07:12:07;;;;;;;0.05;0.05;;;3.70;99.90;;;;;;5015549;28;20133;-79
2022/04/03 07:14:33;;;;;;;0.63;0.60;;;3.80;99.90;;;;;;5019570;28;20044;-80
2022/04/03 07:16:58;;;;;;;0.40;0.40;;;3.90;99.90;;;;;;5023580;28;20049;-80
2022/04/03 07:19:24;;;;;;;0.10;0.10;;;3.90;99.90;;;;;;5022215;28;20079;-80
2022/04/03 07:21:50;;;;;;;0.10;0.10;;;3.90;99.90;;;;;;5022090;28;20199;-81
2022/04/03 07:24:17;;;;;;;0.10;0.10;;;3.90;99.90;;;;;;5011055;28;20065;-80
2022/04/03 07:26:42;;;;;;;0.13;0.13;;;3.80;99.90;;;;;;5002451;28;20046;-80
2022/04/03 07:29:08;;;;;;;0.00;0.00;;;3.80;99.90;;;;;;5003506;28;20057;-80
2022/04/03 07:31:33;;;;;;;0.00;0.00;;;3.80;99.90;;;;;;5004721;28;20076;-80
2022/04/03 07:33:59;;;;;;;0.17;0.10;;;3.70;99.90;;;;;;5006615;28;20034;-80
2022/04/03 07:36:25;;;;;;;0.50;0.20;;;3.70;99.90;;;;;;5011122;28;20288;-79
2022/04/03 07:38:52;;;;;;;0.20;0.20;;;3.70;99.90;;;;;;5007658;28;20049;-79
2022/04/03 07:41:18;;;;;;;3.53;0.40;;;3.70;99.90;;;;;;5002165;28;20076;-79
2022/04/03 07:43:44;;;;;;;0.73;0.53;;;3.70;99.90;;;;;;5010941;28;20281;-79
2022/04/03 07:46:12;;;;;;;1.00;0.93;;;3.80;99.90;;;;;;5016119;28;20132;-84
2022/04/03 07:48:38;;;;;;;0.27;0.27;;;3.70;99.90;;;;;;4986766;28;20104;-85
2022/04/03 07:51:03;;;;;;;0.00;0.00;;;3.80;99.90;;;;;;5003019;28;20042;-88
2022/04/03 07:53:29;;;;;;;0.27;0.27;;;3.90;99.90;;;;;;5002952;28;20042;-93
2022/04/03 07:55:54;;;;;;;0.00;0.00;;;3.90;99.90;;;;;;5015020;28;20062;-83
2022/04/03 07:58:20;;;;;;;0.77;0.60;;;3.90;99.90;;;;;;5020041;28;20055;-83
2022/04/03 08:00:46;;;;;;;0.63;0.40;;;4.00;99.90;;;;;;5015963;28;20034;-82
2022/04/03 08:03:12;;;;;;;0.30;0.30;;;4.00;99.90;;;;;;5010953;28;20056;-83
2022/04/03 08:05:37;;;;;;;2.03;0.77;;;4.10;99.90;;;;;;5022554;28;20041;-82
2022/04/03 08:08:03;;;;;;;0.07;0.07;;;4.10;99.90;;;;;;5013706;28;20052;-82
2022/04/03 08:10:29;;;;;;;0.47;0.27;;;4.10;99.90;;;;;;5007434;28;20070;-82
2022/04/03 08:12:55;;;;;;;0.43;0.20;;;4.20;99.90;;;;;;5017951;28;20076;-83
2022/04/03 08:15:21;;;;;;;0.40;0.40;;;4.20;99.90;;;;;;4999951;28;20042;-82
2022/04/03 08:17:46;;;;;;;0.27;0.27;;;4.20;99.90;;;;;;5001990;28;20046;-82
2022/04/03 08:20:17;;;;;;;2.23;1.10;;;4.30;99.90;;;;;;5001812;28;20515;-81
2022/04/03 08:22:47;;;;;;;0.37;0.23;;;4.40;99.90;;;;;;5002056;28;20060;-84
2022/04/03 08:25:13;;;;;;;5.87;0.57;;;4.40;99.90;;;;;;5009965;28;20038;-82
2022/04/03 08:27:51;;;;;;;0.70;0.70;;;4.40;99.90;;;;;;5001955;28;20709;-78
2022/04/03 08:30:23;;;;;;;0.50;0.50;;;4.40;99.90;;;;;;5010700;28;20117;-82
2022/04/03 08:32:49;;;;;;;0.50;0.50;;;4.50;99.90;;;;;;5009841;28;20061;-82
2022/04/03 08:35:16;;;;;;;0.40;0.40;;;4.60;99.90;;;;;;5002066;28;20071;-80
2022/04/03 08:37:42;;;;;;;0.43;0.43;;;4.60;99.90;;;;;;4999917;28;20033;-81
2022/04/03 08:40:09;;;;;;;2.00;0.93;;;4.60;99.90;;;;;;5001706;28;20069;-84
2022/04/03 08:42:35;;;;;;;0.30;0.30;;;4.70;99.90;;;;;;5000816;28;20157;-83
2022/04/03 08:45:02;;;;;;;1.53;1.07;;;4.70;99.90;;;;;;5001209;28;20057;-84
2022/04/03 08:47:29;;;;;;;0.77;0.57;;;4.70;99.90;;;;;;4996124;28;20139;-82
2022/04/03 08:49:57;;;;;;;2.10;1.20;;;4.70;99.90;;;;;;4999096;28;20042;-82
2022/04/03 08:52:23;;;;;;;0.33;0.33;;;4.70;99.90;;;;;;5000779;28;20135;-81
2022/04/03 08:54:49;;;;;;;0.20;0.20;;;4.80;99.90;;;;;;5001802;28;20500;-84
2022/04/03 08:57:15;;;;;;;3.30;0.97;;;4.90;99.90;;;;;;4998513;28;20048;-82
2022/04/03 08:59:42;;;;;;;0.10;0.10;;;4.90;99.90;;;;;;5003767;28;20040;-81
2022/04/03 09:02:08;;;;;;;0.63;0.57;;;4.90;99.90;;;;;;5002847;28;20050;-83
2022/04/03 09:04:37;;;;;;;0.73;0.73;;;4.90;99.90;;;;;;5001370;28;20560;-82
2022/04/03 09:07:03;;;;;;;0.70;0.40;;;4.90;99.90;;;;;;5019561;28;20046;-82
2022/04/03 09:09:28;;;;;;;0.83;0.83;;;5.00;99.90;;;;;;5010029;28;20548;-81
2022/04/03 09:12:23;;;;;;;0.20;0.20;;;5.00;99.90;;;;;;5018321;28;20411;-83
2022/04/03 09:14:54;;;;;;;1.77;0.43;;;5.00;99.90;;;;;;4990875;28;20054;-80
2022/04/03 09:17:38;;;;;;;0.50;0.50;;;5.10;99.90;;;;;;5011500;28;20061;-79
2022/04/03 09:20:09;;;;;;;4.73;0.97;;;5.20;99.90;;;;;;5002908;28;20037;-79
2022/04/03 09:22:36;;;;;;;0.20;0.20;;;5.20;99.90;;;;;;5004894;28;20050;-79
2022/04/03 09:25:14;;;;;;;0.60;0.60;;;5.30;99.90;;;;;;5003173;28;20046;-79
2022/04/03 09:27:51;;;;;;;1.03;0.83;;;5.30;99.90;;;;;;5004465;28;20034;-78
2022/04/03 09:30:38;;;;;;;1.50;1.23;;;5.30;99.90;;;;;;5004355;28;20193;-79
2022/04/03 09:33:07;;;;;;;2.47;0.73;;;5.30;99.90;;;;;;5004349;28;20093;-78
2022/04/03 09:35:52;;;;;;;0.17;0.17;;;5.30;99.90;;;;;;5008239;28;20038;-79
2022/04/03 09:38:18;;;;;;;3.83;1.03;;;5.20;99.90;;;;;;4986405;28;20042;-82
2022/04/03 09:40:47;;;;;;;0.60;0.43;;;5.20;99.90;;;;;;4989836;28;20092;-81
2022/04/03 09:43:15;;;;;;;0.45;0.32;;;5.30;99.90;;;;;;5009417;28;20143;-81
2022/04/03 09:45:57;;;;;;;0.47;0.47;;;5.30;99.90;;;;;;5015660;28;20088;-79
2022/04/03 09:48:24;;;;;;;0.00;0.00;;;5.40;99.90;;;;;;5007615;28;20045;-79
2022/04/03 09:51:02;;;;;;;0.30;0.30;;;5.40;99.90;;;;;;5018254;28;20575;-78
2022/04/03 09:53:29;;;;;;;2.58;1.15;;;5.50;99.90;;;;;;4997394;28;20061;-79
2022/04/03 09:55:55;;;;;;;7.13;1.40;;;5.50;99.90;;;;;;5022403;28;20099;-78
2022/04/03 09:58:22;;;;;;;15.60;0.75;;;5.60;99.90;;;;;;5009770;28;20041;-78
2022/04/03 10:00:47;;;;;;;0.10;0.10;;;5.50;99.90;;;;;;5004927;28;20080;-78
2022/04/03 10:03:14;;;;;;;0.43;0.37;;;5.60;99.90;;;;;;5013541;28;20081;-78
2022/04/03 10:05:41;;;;;;;0.47;0.47;;;5.60;99.90;;;;;;5012534;28;20505;-78
2022/04/03 10:08:06;;;;;;;1.15;0.50;;;5.70;99.90;;;;;;5004256;28;20054;-78
2022/04/03 10:10:35;;;;;;;0.30;0.30;;;5.60;99.90;;;;;;5019434;28;20091;-78
2022/04/03 10:13:02;;;;;;;5.10;1.03;;;5.70;99.90;;;;;;5015659;28;20044;-78
2022/04/03 10:15:28;;;;;;;0.52;0.52;;;5.80;99.90;;;;;;5018977;28;20315;-78
2022/04/03 10:17:55;;;;;;;0.40;0.40;;;5.80;99.90;;;;;;5022343;28;20153;-78
2022/04/03 10:20:25;;;;;;;0.17;0.17;;;5.90;99.90;;;;;;5023102;28;20041;-78
2022/04/03 10:22:55;;;;;;;0.25;0.25;;;5.90;99.90;;;;;;5014646;28;20154;-78
2022/04/03 10:25:27;;;;;;;0.55;0.40;;;5.90;99.90;;;;;;5018437;28;20049;-79
2022/04/03 10:27:56;;;;;;;0.43;0.43;;;5.90;99.90;;;;;;5012570;28;20051;-78
2022/04/03 10:30:34;;;;;;;1.23;0.68;;;6.00;99.90;;;;;;5003594;28;20048;-79
2022/04/03 10:33:00;;;;;;;0.70;0.70;;;6.00;99.90;;;;;;5020636;28;20056;-79
2022/04/03 10:35:26;;;;;;;0.80;0.80;;;6.20;99.90;;;;;;5002507;28;20121;-92
2022/04/03 10:38:05;;;;;;;1.30;0.88;;;6.20;99.90;;;;;;5013256;28;20045;-94
2022/04/03 10:40:34;;;;;;;0.63;0.63;;;6.30;99.90;;;;;;5021887;28;20046;-96
2022/04/03 10:43:06;;;;;;;1.00;0.75;;;6.30;99.90;;;;;;4981370;28;20049;-92
2022/04/03 10:45:46;;;;;;;0.38;0.38;;;6.40;99.90;;;;;;5028746;28;20089;-90
2022/04/03 10:48:21;;;;;;;0.13;0.13;;;6.40;99.90;;;;;;5006119;28;20099;-88
2022/04/03 10:51:02;;;;;;;1.17;0.63;;;6.40;99.90;;;;;;5010320;28;20132;-96
2022/04/03 10:53:37;;;;;;;0.52;0.52;;;6.40;99.90;;;;;;5003486;28;20479;-95
2022/04/03 10:56:09;;;;;;;1.27;0.50;;;6.40;99.90;;;;;;5005754;28;20038;-90
2022/04/03 10:58:38;;;;;;;0.43;0.43;;;6.30;99.90;;;;;;4987852;28;20042;-96
2022/04/03 11:01:04;;;;;;;0.55;0.55;;;6.30;99.90;;;;;;5007847;28;20062;-88
2022/04/03 11:03:32;;;;;;;0.60;0.45;;;6.30;99.90;;;;;;5006962;28;20037;-87
2022/04/03 11:06:17;;;;;;;0.17;0.17;;;6.30;99.90;;;;;;5003924;28;20041;-91
2022/04/03 11:08:53;;;;;;;0.10;0.10;;;6.30;99.90;;;;;;5003961;28;20046;-92
2022/04/03 11:11:30;;;;;;;0.30;0.30;;;6.40;99.90;;;;;;5001225;28;20088;-87
2022/04/03 11:13:56;;;;;;;0.63;0.30;;;6.50;99.90;;;;;;5003402;28;20515;-87
2022/04/03 11:16:22;;;;;;;0.20;0.20;;;6.50;99.90;;;;;;5007378;28;20042;-93
2022/04/03 11:18:50;;;;;;;0.47;0.43;;;6.50;99.90;;;;;;5002337;28;20124;-94
2022/04/03 11:21:23;;;;;;;1.00;0.30;;;6.50;99.90;;;;;;4980025;28;20041;-82
2022/04/03 11:23:54;;;;;;;;;;;6.50;99.90;;;;;;5003836;28;20472;-81
2022/04/03 11:26:21;;;;;;;0.25;0.25;;;6.50;99.90;;;;;;5020881;28;20023;-82
2022/04/03 11:28:47;;;;;;;0.40;0.40;;;6.60;99.90;;;;;;5021484;28;20037;-81
2022/04/03 11:31:14;;;;;;;0.45;0.45;;;6.60;99.90;;;;;;5021485;28;20052;-81
2022/04/03 11:33:41;;;;;;;0.30;0.30;;;6.60;99.90;;;;;;5022949;28;20049;-93
2022/04/03 11:36:12;;;;;;;0.22;0.20;;;6.70;99.90;;;;;;5012888;28;20493;-91
2022/04/03 11:38:40;;;;;;;1.00;0.75;;;6.70;99.90;;;;;;5001030;28;20045;-81
2022/04/03 11:41:10;;;;;;;0.20;0.20;;;6.80;99.90;;;;;;5000248;28;20519;-80
2022/04/03 11:43:36;;;;;;;0.57;0.38;;;6.80;99.90;;;;;;5002554;28;20042;-80
2022/04/03 11:46:03;;;;;;;0.40;0.40;;;6.80;99.90;;;;;;5002329;28;20400;-80
2022/04/03 11:48:31;;;;;;;0.20;0.20;;;6.80;99.90;;;;;;5000229;28;20046;-80
2022/04/03 11:51:12;;;;;;;1.05;0.70;;;6.70;99.90;;;;;;5000807;28;20037;-81
2022/04/03 11:53:39;;;;;;;0.40;0.40;;;6.70;99.90;;;;;;5000779;28;20119;-81
2022/04/03 11:56:24;;;;;;;0.52;0.52;;;6.70;99.90;;;;;;5015887;28;20038;-81
2022/04/03 11:58:54;;;;;;;1.30;0.40;;;6.90;99.90;;;;;;5000871;28;20053;-81
2022/04/03 12:01:24;;;;;;;0.32;0.32;;;6.90;99.90;;;;;;5001383;28;20030;-81
2022/04/03 12:04:08;;;;;;;0.40;0.40;;;6.90;99.90;;;;;;5001734;28;20053;-81
2022/04/03 12:06:35;;;;;;;0.30;0.30;;;6.90;99.90;;;;;;5002614;28;20084;-81
2022/04/03 12:09:08;;;;;;;0.30;0.30;;;7.00;99.90;;;;;;5002852;28;20044;-83
2022/04/03 12:11:35;;;;;;;0.35;0.35;;;6.90;99.90;;;;;;5002488;28;20052;-90
2022/04/03 12:14:02;;;;;;;0.82;0.82;;;6.90;99.90;;;;;;5006433;28;20049;-96
2022/04/03 12:16:41;;;;;;;0.52;0.52;;;6.90;99.90;;;;;;4969518;28;20117;-96
2022/04/03 12:19:15;;;;;;;0.50;0.50;;;7.10;99.90;;;;;;4993724;28;20048;-87
2022/04/03 12:21:43;;;;;;;0.40;0.40;;;7.10;99.90;;;;;;5021695;28;20092;-78
2022/04/03 12:24:11;;;;;;;0.43;0.43;;;7.10;99.90;;;;;;5020283;28;20041;-79
2022/04/03 12:26:38;;;;;;;0.57;0.57;;;7.20;99.90;;;;;;5021666;28;20597;-77
2022/04/03 12:29:05;;;;;;;0.47;0.47;;;7.20;99.90;;;;;;5021949;28;20085;-77
2022/04/03 12:31:32;;;;;;;0.85;0.63;;;7.20;99.90;;;;;;5021607;28;20076;-77
2022/04/03 12:34:16;;;;;;;0.50;0.50;;;7.20;99.90;;;;;;5020121;28;20522;-77
2022/04/03 12:36:47;;;;;;;0.20;0.20;;;7.20;99.90;;;;;;5022042;28;20056;-77
2022/04/03 12:39:37;;;;;;;0.20;0.20;;;7.20;99.90;;;;;;5020119;28;20052;-77
2022/04/03 12:42:13;;;;;;;0.13;0.13;;;7.10;99.90;;;;;;5020610;28;20053;-77
2022/04/03 12:45:02;;;;;;;11.18;1.13;;;7.10;99.90;;;;;;5002392;28;20061;-76
2022/04/03 12:47:50;;;;;;;0.50;0.50;;;7.10;99.90;;;;;;5000433;28;20494;-77
2022/04/03 12:50:19;;;;;;;0.50;0.40;;;7.10;99.90;;;;;;5000325;28;20037;-77
2022/04/03 12:52:47;;;;;;;0.40;0.40;;;7.10;99.90;;;;;;5001969;28;20041;-77
2022/04/03 12:55:22;;;;;;;0.28;0.28;;;7.10;99.90;;;;;;5001426;28;20042;-77
2022/04/03 13:01:13;;;;;;;0.22;0.22;;;7.00;99.90;;;;;;5000884;28;20056;-78
2022/04/03 13:03:51;;;;;;;0.30;0.30;;;7.00;99.90;;;;;;5001455;28;20428;-76